sensor_id;sensor_type;location;lat;lon;timestamp;pressure;altitude;pressure_sealevel;temperature;humidity
53526;BME280;40551;50.478;19.378;2023-02-19T00:01:15;97592.23;;;5.47;89.95
53526;BME280;40551;50.478;19.378;2023-02-19T00:08:34;97587.90;;;5.50;89.78
53526;BME280;40551;50.478;19.378;2023-02-19T00:11:45;97587.73;;;5.50;89.90
53526;BME280;40551;50.478;19.378;2023-02-19T00:18:28;97600.69;;;5.50;90.06
53526;BME280;40551;50.478;19.378;2023-02-19T00:24:00;97608.46;;;5.49;90.00
53526;BME280;40551;50.478;19.378;2023-02-19T00:26:29;97613.54;;;5.50;90.00
53526;BME280;40551;50.478;19.378;2023-02-19T00:28:57;97616.18;;;5.52;90.21
53526;BME280;40551;50.478;19.378;2023-02-19T00:31:28;97608.75;;;5.52;90.17
53526;BME280;40551;50.478;19.378;2023-02-19T00:34:02;97599.11;;;5.52;90.14
53526;BME280;40551;50.478;19.378;2023-02-19T00:36:32;97593.65;;;5.51;90.00
53526;BME280;40551;50.478;19.378;2023-02-19T00:39:02;97583.51;;;5.49;90.03
53526;BME280;40551;50.478;19.378;2023-02-19T00:41:31;97588.73;;;5.46;89.98
53526;BME280;40551;50.478;19.378;2023-02-19T00:44:01;97590.08;;;5.44;89.94
53526;BME280;40551;50.478;19.378;2023-02-19T00:46:33;97582.89;;;5.43;90.01
53526;BME280;40551;50.478;19.378;2023-02-19T00:49:04;97585.62;;;5.44;90.30
53526;BME280;40551;50.478;19.378;2023-02-19T00:51:35;97589.27;;;5.43;90.05
53526;BME280;40551;50.478;19.378;2023-02-19T00:54:04;97583.19;;;5.42;90.05
53526;BME280;40551;50.478;19.378;2023-02-19T00:56:32;97581.87;;;5.41;90.13
53526;BME280;40551;50.478;19.378;2023-02-19T00:59:01;97587.26;;;5.38;90.04
53526;BME280;40551;50.478;19.378;2023-02-19T01:01:31;97591.82;;;5.36;90.05
53526;BME280;40551;50.478;19.378;2023-02-19T01:03:59;97585.86;;;5.36;90.33
53526;BME280;40551;50.478;19.378;2023-02-19T01:06:28;97583.12;;;5.36;90.05
53526;BME280;40551;50.478;19.378;2023-02-19T01:08:59;97578.34;;;5.35;90.37
53526;BME280;40551;50.478;19.378;2023-02-19T01:11:27;97578.91;;;5.34;90.38
53526;BME280;40551;50.478;19.378;2023-02-19T01:13:57;97573.80;;;5.33;90.31
53526;BME280;40551;50.478;19.378;2023-02-19T01:16:26;97570.80;;;5.32;90.35
53526;BME280;40551;50.478;19.378;2023-02-19T01:18:56;97571.55;;;5.29;90.12
53526;BME280;40551;50.478;19.378;2023-02-19T01:21:25;97571.80;;;5.28;90.37
53526;BME280;40551;50.478;19.378;2023-02-19T01:23:54;97574.39;;;5.28;90.45
53526;BME280;40551;50.478;19.378;2023-02-19T01:26:26;97575.09;;;5.27;90.59
53526;BME280;40551;50.478;19.378;2023-02-19T01:28:55;97576.10;;;5.28;90.57
53526;BME280;40551;50.478;19.378;2023-02-19T01:31:24;97573.20;;;5.27;90.41
53526;BME280;40551;50.478;19.378;2023-02-19T01:33:54;97569.11;;;5.27;90.46
53526;BME280;40551;50.478;19.378;2023-02-19T01:36:23;97567.83;;;5.26;90.61
53526;BME280;40551;50.478;19.378;2023-02-19T01:38:52;97564.46;;;5.25;90.67
53526;BME280;40551;50.478;19.378;2023-02-19T01:41:22;97561.47;;;5.23;90.42
53526;BME280;40551;50.478;19.378;2023-02-19T01:44:00;97561.94;;;5.22;90.49
53526;BME280;40551;50.478;19.378;2023-02-19T01:46:30;97566.36;;;5.20;90.48
53526;BME280;40551;50.478;19.378;2023-02-19T01:49:03;97559.06;;;5.19;90.40
53526;BME280;40551;50.478;19.378;2023-02-19T01:51:33;97554.25;;;5.18;90.40
53526;BME280;40551;50.478;19.378;2023-02-19T01:54:04;97551.92;;;5.17;90.48
53526;BME280;40551;50.478;19.378;2023-02-19T01:56:36;97545.07;;;5.15;90.34
53526;BME280;40551;50.478;19.378;2023-02-19T01:59:06;97543.80;;;5.13;90.46
53526;BME280;40551;50.478;19.378;2023-02-19T02:01:35;97535.89;;;5.13;90.61
53526;BME280;40551;50.478;19.378;2023-02-19T02:04:06;97532.47;;;5.13;90.35
53526;BME280;40551;50.478;19.378;2023-02-19T02:06:38;97534.26;;;5.14;90.72
53526;BME280;40551;50.478;19.378;2023-02-19T02:09:09;97525.20;;;5.16;90.60
53526;BME280;40551;50.478;19.378;2023-02-19T02:11:56;97519.69;;;5.16;90.73
53526;BME280;40551;50.478;19.378;2023-02-19T02:14:26;97517.66;;;5.16;90.61
53526;BME280;40551;50.478;19.378;2023-02-19T02:17:03;97517.24;;;5.17;90.57
53526;BME280;40551;50.478;19.378;2023-02-19T02:19:54;97519.48;;;5.17;90.62
53526;BME280;40551;50.478;19.378;2023-02-19T02:22:31;97517.75;;;5.14;90.54
53526;BME280;40551;50.478;19.378;2023-02-19T02:25:34;97508.75;;;5.12;90.79
53526;BME280;40551;50.478;19.378;2023-02-19T02:28:19;97509.55;;;5.11;90.57
53526;BME280;40551;50.478;19.378;2023-02-19T02:30:52;97506.34;;;5.10;90.52
53526;BME280;40551;50.478;19.378;2023-02-19T02:33:30;97508.16;;;5.09;90.76
53526;BME280;40551;50.478;19.378;2023-02-19T02:36:04;97508.72;;;5.08;90.84
53526;BME280;40551;50.478;19.378;2023-02-19T02:38:36;97507.33;;;5.08;90.84
53526;BME280;40551;50.478;19.378;2023-02-19T02:41:06;97504.70;;;5.09;90.72
53526;BME280;40551;50.478;19.378;2023-02-19T02:43:35;97505.27;;;5.08;90.50
53526;BME280;40551;50.478;19.378;2023-02-19T02:46:04;97501.36;;;5.08;90.74
53526;BME280;40551;50.478;19.378;2023-02-19T02:48:35;97497.65;;;5.07;90.69
53526;BME280;40551;50.478;19.378;2023-02-19T02:51:11;97496.67;;;5.03;90.69
53526;BME280;40551;50.478;19.378;2023-02-19T02:54:00;97495.16;;;5.03;90.88
53526;BME280;40551;50.478;19.378;2023-02-19T02:56:49;97493.84;;;5.02;91.07
53526;BME280;40551;50.478;19.378;2023-02-19T02:59:20;97490.61;;;5.02;90.89
53526;BME280;40551;50.478;19.378;2023-02-19T03:01:51;97489.05;;;5.02;90.97
53526;BME280;40551;50.478;19.378;2023-02-19T03:04:44;97490.02;;;5.02;90.96
53526;BME280;40551;50.478;19.378;2023-02-19T03:07:37;97486.38;;;5.03;91.16
53526;BME280;40551;50.478;19.378;2023-02-19T03:10:10;97485.52;;;5.03;91.16
53526;BME280;40551;50.478;19.378;2023-02-19T03:12:41;97485.14;;;5.04;91.25
53526;BME280;40551;50.478;19.378;2023-02-19T03:15:32;97482.85;;;5.05;91.37
53526;BME280;40551;50.478;19.378;2023-02-19T03:18:23;97477.23;;;5.04;91.47
53526;BME280;40551;50.478;19.378;2023-02-19T03:21:13;97471.02;;;5.04;91.54
53526;BME280;40551;50.478;19.378;2023-02-19T03:23:43;97468.76;;;5.04;91.47
53526;BME280;40551;50.478;19.378;2023-02-19T03:26:31;97461.70;;;5.04;91.53
53526;BME280;40551;50.478;19.378;2023-02-19T03:29:03;97459.58;;;5.05;91.56
53526;BME280;40551;50.478;19.378;2023-02-19T03:31:54;97462.09;;;5.06;91.83
53526;BME280;40551;50.478;19.378;2023-02-19T03:34:24;97463.53;;;5.08;91.76
53526;BME280;40551;50.478;19.378;2023-02-19T03:36:59;97455.67;;;5.05;91.93
53526;BME280;40551;50.478;19.378;2023-02-19T03:39:30;97457.28;;;5.06;92.02
53526;BME280;40551;50.478;19.378;2023-02-19T03:42:04;97456.98;;;5.08;92.08
53526;BME280;40551;50.478;19.378;2023-02-19T03:44:40;97460.79;;;5.10;91.89
53526;BME280;40551;50.478;19.378;2023-02-19T03:47:14;97466.66;;;5.12;92.07
53526;BME280;40551;50.478;19.378;2023-02-19T03:49:48;97468.73;;;5.15;92.09
53526;BME280;40551;50.478;19.378;2023-02-19T03:52:22;97469.92;;;5.17;92.07
53526;BME280;40551;50.478;19.378;2023-02-19T03:55:01;97472.39;;;5.19;92.12
53526;BME280;40551;50.478;19.378;2023-02-19T03:57:35;97472.48;;;5.20;92.14
53526;BME280;40551;50.478;19.378;2023-02-19T04:00:10;97466.92;;;5.21;92.05
53526;BME280;40551;50.478;19.378;2023-02-19T04:02:46;97467.41;;;5.21;92.29
53526;BME280;40551;50.478;19.378;2023-02-19T04:05:19;97467.79;;;5.21;92.28
53526;BME280;40551;50.478;19.378;2023-02-19T04:07:52;97463.73;;;5.22;92.37
53526;BME280;40551;50.478;19.378;2023-02-19T04:10:26;97458.42;;;5.22;92.46
53526;BME280;40551;50.478;19.378;2023-02-19T04:12:58;97456.69;;;5.22;92.26
53526;BME280;40551;50.478;19.378;2023-02-19T04:15:30;97452.21;;;5.22;92.52
53526;BME280;40551;50.478;19.378;2023-02-19T04:18:04;97447.73;;;5.22;92.38
53526;BME280;40551;50.478;19.378;2023-02-19T04:20:38;97449.90;;;5.23;92.56
53526;BME280;40551;50.478;19.378;2023-02-19T04:23:07;97450.23;;;5.23;92.69
53526;BME280;40551;50.478;19.378;2023-02-19T04:25:38;97451.21;;;5.24;92.29
53526;BME280;40551;50.478;19.378;2023-02-19T04:28:08;97445.86;;;5.24;92.58
53526;BME280;40551;50.478;19.378;2023-02-19T04:30:37;97445.46;;;5.25;92.43
53526;BME280;40551;50.478;19.378;2023-02-19T04:33:05;97445.08;;;5.26;92.43
53526;BME280;40551;50.478;19.378;2023-02-19T04:35:33;97443.02;;;5.25;92.48
53526;BME280;40551;50.478;19.378;2023-02-19T04:38:01;97442.96;;;5.26;92.40
53526;BME280;40551;50.478;19.378;2023-02-19T04:40:30;97440.77;;;5.26;92.53
53526;BME280;40551;50.478;19.378;2023-02-19T04:42:58;97440.25;;;5.26;92.50
53526;BME280;40551;50.478;19.378;2023-02-19T04:45:26;97441.39;;;5.26;92.49
53526;BME280;40551;50.478;19.378;2023-02-19T04:47:56;97440.84;;;5.27;92.37
53526;BME280;40551;50.478;19.378;2023-02-19T04:50:25;97440.55;;;5.26;92.40
53526;BME280;40551;50.478;19.378;2023-02-19T04:52:53;97441.86;;;5.27;92.38
53526;BME280;40551;50.478;19.378;2023-02-19T04:55:21;97438.56;;;5.27;92.40
53526;BME280;40551;50.478;19.378;2023-02-19T04:57:49;97437.84;;;5.28;92.35
53526;BME280;40551;50.478;19.378;2023-02-19T05:00:18;97425.96;;;5.28;92.31
53526;BME280;40551;50.478;19.378;2023-02-19T05:02:46;97419.64;;;5.28;92.59
53526;BME280;40551;50.478;19.378;2023-02-19T05:05:15;97411.63;;;5.27;92.53
53526;BME280;40551;50.478;19.378;2023-02-19T05:07:43;97406.55;;;5.26;92.37
53526;BME280;40551;50.478;19.378;2023-02-19T05:10:11;97405.96;;;5.24;92.38
53526;BME280;40551;50.478;19.378;2023-02-19T05:12:39;97401.63;;;5.25;92.69
53526;BME280;40551;50.478;19.378;2023-02-19T05:15:08;97395.42;;;5.25;92.55
53526;BME280;40551;50.478;19.378;2023-02-19T05:17:36;97392.52;;;5.24;92.46
53526;BME280;40551;50.478;19.378;2023-02-19T05:20:05;97392.65;;;5.25;92.55
53526;BME280;40551;50.478;19.378;2023-02-19T05:22:33;97389.70;;;5.26;92.60
53526;BME280;40551;50.478;19.378;2023-02-19T05:25:02;97394.80;;;5.26;92.59
53526;BME280;40551;50.478;19.378;2023-02-19T05:27:40;97386.56;;;5.26;92.74
53526;BME280;40551;50.478;19.378;2023-02-19T05:30:19;97387.16;;;5.25;92.62
53526;BME280;40551;50.478;19.378;2023-02-19T05:32:48;97390.80;;;5.25;92.69
53526;BME280;40551;50.478;19.378;2023-02-19T05:35:16;97391.75;;;5.23;92.52
53526;BME280;40551;50.478;19.378;2023-02-19T05:37:44;97396.05;;;5.21;92.67
53526;BME280;40551;50.478;19.378;2023-02-19T05:40:13;97394.38;;;5.21;92.70
53526;BME280;40551;50.478;19.378;2023-02-19T05:42:41;97399.05;;;5.20;92.68
53526;BME280;40551;50.478;19.378;2023-02-19T05:45:09;97397.51;;;5.20;92.66
53526;BME280;40551;50.478;19.378;2023-02-19T05:47:37;97389.70;;;5.21;92.78
53526;BME280;40551;50.478;19.378;2023-02-19T05:50:07;97380.67;;;5.20;92.57
53526;BME280;40551;50.478;19.378;2023-02-19T05:52:35;97386.86;;;5.20;92.85
53526;BME280;40551;50.478;19.378;2023-02-19T05:55:05;97392.40;;;5.19;92.86
53526;BME280;40551;50.478;19.378;2023-02-19T05:57:33;97388.63;;;5.22;92.93
53526;BME280;40551;50.478;19.378;2023-02-19T06:00:09;97384.27;;;5.22;92.70
53526;BME280;40551;50.478;19.378;2023-02-19T06:02:39;97379.94;;;5.23;92.92
53526;BME280;40551;50.478;19.378;2023-02-19T06:05:08;97380.24;;;5.23;92.97
53526;BME280;40551;50.478;19.378;2023-02-19T06:07:36;97377.30;;;5.23;93.00
53526;BME280;40551;50.478;19.378;2023-02-19T06:10:07;97376.27;;;5.24;92.97
53526;BME280;40551;50.478;19.378;2023-02-19T06:12:35;97378.73;;;5.23;93.00
53526;BME280;40551;50.478;19.378;2023-02-19T06:15:05;97375.92;;;5.23;93.25
53526;BME280;40551;50.478;19.378;2023-02-19T06:17:34;97370.70;;;5.24;93.17
53526;BME280;40551;50.478;19.378;2023-02-19T06:20:02;97376.54;;;5.27;93.28
53526;BME280;40551;50.478;19.378;2023-02-19T06:22:31;97375.27;;;5.27;93.02
53526;BME280;40551;50.478;19.378;2023-02-19T06:24:59;97377.13;;;5.28;93.12
53526;BME280;40551;50.478;19.378;2023-02-19T06:27:27;97379.35;;;5.28;93.16
53526;BME280;40551;50.478;19.378;2023-02-19T06:29:55;97378.34;;;5.28;92.97
53526;BME280;40551;50.478;19.378;2023-02-19T06:32:24;97379.36;;;5.28;93.10
53526;BME280;40551;50.478;19.378;2023-02-19T06:34:52;97375.61;;;5.28;93.15
53526;BME280;40551;50.478;19.378;2023-02-19T06:37:20;97378.01;;;5.28;93.32
53526;BME280;40551;50.478;19.378;2023-02-19T06:39:48;97376.23;;;5.29;93.31
53526;BME280;40551;50.478;19.378;2023-02-19T06:42:17;97371.45;;;5.28;93.22
53526;BME280;40551;50.478;19.378;2023-02-19T06:44:46;97372.59;;;5.29;93.25
53526;BME280;40551;50.478;19.378;2023-02-19T06:47:14;97372.99;;;5.30;93.20
53526;BME280;40551;50.478;19.378;2023-02-19T06:49:43;97372.56;;;5.31;93.29
53526;BME280;40551;50.478;19.378;2023-02-19T06:52:11;97370.84;;;5.34;93.62
53526;BME280;40551;50.478;19.378;2023-02-19T06:54:39;97370.89;;;5.36;93.66
53526;BME280;40551;50.478;19.378;2023-02-19T06:57:07;97370.00;;;5.36;93.40
53526;BME280;40551;50.478;19.378;2023-02-19T06:59:36;97374.64;;;5.36;93.59
53526;BME280;40551;50.478;19.378;2023-02-19T07:02:04;97369.25;;;5.37;93.91
53526;BME280;40551;50.478;19.378;2023-02-19T07:04:33;97368.02;;;5.40;93.69
53526;BME280;40551;50.478;19.378;2023-02-19T07:07:01;97373.36;;;5.42;93.86
53526;BME280;40551;50.478;19.378;2023-02-19T07:09:30;97368.91;;;5.44;93.77
53526;BME280;40551;50.478;19.378;2023-02-19T07:11:58;97368.88;;;5.47;93.94
53526;BME280;40551;50.478;19.378;2023-02-19T07:14:26;97378.65;;;5.49;93.91
53526;BME280;40551;50.478;19.378;2023-02-19T07:16:56;97375.59;;;5.53;94.18
53526;BME280;40551;50.478;19.378;2023-02-19T07:19:24;97376.19;;;5.59;94.32
53526;BME280;40551;50.478;19.378;2023-02-19T07:21:52;97374.10;;;5.64;94.45
53526;BME280;40551;50.478;19.378;2023-02-19T07:24:21;97369.27;;;5.69;94.48
53526;BME280;40551;50.478;19.378;2023-02-19T07:26:49;97371.98;;;5.74;94.48
53526;BME280;40551;50.478;19.378;2023-02-19T07:29:24;97368.73;;;5.76;94.29
53526;BME280;40551;50.478;19.378;2023-02-19T07:31:52;97368.48;;;5.79;94.30
53526;BME280;40551;50.478;19.378;2023-02-19T07:34:21;97365.77;;;5.81;94.19
53526;BME280;40551;50.478;19.378;2023-02-19T07:36:49;97362.61;;;5.82;94.10
53526;BME280;40551;50.478;19.378;2023-02-19T07:39:17;97362.44;;;5.84;94.37
53526;BME280;40551;50.478;19.378;2023-02-19T07:41:46;97367.16;;;5.87;94.42
53526;BME280;40551;50.478;19.378;2023-02-19T07:44:26;97368.59;;;5.89;94.20
53526;BME280;40551;50.478;19.378;2023-02-19T07:46:54;97367.25;;;5.91;94.32
53526;BME280;40551;50.478;19.378;2023-02-19T07:49:22;97359.71;;;5.92;94.33
53526;BME280;40551;50.478;19.378;2023-02-19T07:51:50;97356.02;;;5.94;94.23
53526;BME280;40551;50.478;19.378;2023-02-19T07:54:19;97356.18;;;5.96;94.18
53526;BME280;40551;50.478;19.378;2023-02-19T07:56:47;97357.77;;;6.00;94.48
53526;BME280;40551;50.478;19.378;2023-02-19T07:59:16;97362.48;;;6.06;94.66
53526;BME280;40551;50.478;19.378;2023-02-19T08:01:46;97359.89;;;6.11;94.49
53526;BME280;40551;50.478;19.378;2023-02-19T08:04:32;97357.85;;;6.12;94.34
53526;BME280;40551;50.478;19.378;2023-02-19T08:07:00;97357.96;;;6.13;94.21
53526;BME280;40551;50.478;19.378;2023-02-19T08:09:28;97360.88;;;6.09;93.89
53526;BME280;40551;50.478;19.378;2023-02-19T08:11:57;97361.98;;;6.01;93.05
53526;BME280;40551;50.478;19.378;2023-02-19T08:14:57;97367.14;;;5.92;92.70
53526;BME280;40551;50.478;19.378;2023-02-19T08:17:26;97375.54;;;5.86;92.77
53526;BME280;40551;50.478;19.378;2023-02-19T08:19:54;97381.59;;;5.81;92.73
53526;BME280;40551;50.478;19.378;2023-02-19T08:22:25;97384.73;;;5.76;92.64
53526;BME280;40551;50.478;19.378;2023-02-19T08:24:53;97390.38;;;5.72;92.62
53526;BME280;40551;50.478;19.378;2023-02-19T08:27:21;97386.02;;;5.68;92.54
53526;BME280;40551;50.478;19.378;2023-02-19T08:29:49;97390.97;;;5.66;92.66
53526;BME280;40551;50.478;19.378;2023-02-19T08:32:18;97387.36;;;5.64;92.85
53526;BME280;40551;50.478;19.378;2023-02-19T08:34:46;97389.46;;;5.64;92.84
53526;BME280;40551;50.478;19.378;2023-02-19T08:37:14;97391.63;;;5.65;92.79
53526;BME280;40551;50.478;19.378;2023-02-19T08:39:42;97393.36;;;5.64;92.87
53526;BME280;40551;50.478;19.378;2023-02-19T08:42:11;97396.52;;;5.66;92.80
53526;BME280;40551;50.478;19.378;2023-02-19T08:44:39;97393.01;;;5.66;92.85
53526;BME280;40551;50.478;19.378;2023-02-19T08:47:07;97392.11;;;5.69;93.00
53526;BME280;40551;50.478;19.378;2023-02-19T08:49:35;97392.23;;;5.72;92.77
53526;BME280;40551;50.478;19.378;2023-02-19T08:52:04;97390.02;;;5.74;92.88
53526;BME280;40551;50.478;19.378;2023-02-19T08:54:32;97385.80;;;5.77;92.95
53526;BME280;40551;50.478;19.378;2023-02-19T08:57:00;97387.88;;;5.82;92.99
53526;BME280;40551;50.478;19.378;2023-02-19T08:59:28;97384.55;;;5.85;92.94
53526;BME280;40551;50.478;19.378;2023-02-19T09:01:58;97381.50;;;5.89;92.80
53526;BME280;40551;50.478;19.378;2023-02-19T09:04:26;97383.48;;;5.90;92.49
53526;BME280;40551;50.478;19.378;2023-02-19T09:06:54;97382.60;;;5.90;92.38
53526;BME280;40551;50.478;19.378;2023-02-19T09:09:23;97391.59;;;5.87;91.93
53526;BME280;40551;50.478;19.378;2023-02-19T09:11:51;97403.86;;;5.78;91.19
53526;BME280;40551;50.478;19.378;2023-02-19T09:14:19;97403.70;;;5.64;90.38
53526;BME280;40551;50.478;19.378;2023-02-19T09:16:47;97409.83;;;5.49;89.97
53526;BME280;40551;50.478;19.378;2023-02-19T09:19:15;97411.22;;;5.34;89.98
53526;BME280;40551;50.478;19.378;2023-02-19T09:21:44;97411.39;;;5.25;90.07
53526;BME280;40551;50.478;19.378;2023-02-19T09:24:12;97413.66;;;5.18;90.08
53526;BME280;40551;50.478;19.378;2023-02-19T09:26:43;97414.53;;;5.08;89.50
53526;BME280;40551;50.478;19.378;2023-02-19T09:29:11;97418.50;;;4.98;89.68
53526;BME280;40551;50.478;19.378;2023-02-19T09:31:39;97423.69;;;4.86;89.31
53526;BME280;40551;50.478;19.378;2023-02-19T09:34:08;97433.34;;;4.76;89.40
53526;BME280;40551;50.478;19.378;2023-02-19T09:36:37;97434.30;;;4.67;89.54
53526;BME280;40551;50.478;19.378;2023-02-19T09:39:07;97441.60;;;4.56;89.01
53526;BME280;40551;50.478;19.378;2023-02-19T09:41:43;97449.67;;;4.47;89.38
53526;BME280;40551;50.478;19.378;2023-02-19T09:44:15;97453.00;;;4.40;89.46
53526;BME280;40551;50.478;19.378;2023-02-19T09:46:51;97456.96;;;4.35;89.45
53526;BME280;40551;50.478;19.378;2023-02-19T09:49:22;97461.34;;;4.32;89.48
53526;BME280;40551;50.478;19.378;2023-02-19T09:51:56;97471.81;;;4.24;89.35
53526;BME280;40551;50.478;19.378;2023-02-19T09:54:29;97474.16;;;4.17;89.48
53526;BME280;40551;50.478;19.378;2023-02-19T09:57:00;97483.11;;;4.14;89.65
53526;BME280;40551;50.478;19.378;2023-02-19T09:59:32;97486.95;;;4.11;89.63
53526;BME280;40551;50.478;19.378;2023-02-19T10:02:12;97490.44;;;4.03;89.18
53526;BME280;40551;50.478;19.378;2023-02-19T10:04:57;97495.77;;;3.95;89.05
53526;BME280;40551;50.478;19.378;2023-02-19T10:09:14;97500.20;;;3.82;89.25
53526;BME280;40551;50.478;19.378;2023-02-19T10:11:46;97502.81;;;3.77;89.46
53526;BME280;40551;50.478;19.378;2023-02-19T10:14:18;97505.11;;;3.73;89.39
53526;BME280;40551;50.478;19.378;2023-02-19T10:16:48;97507.76;;;3.67;89.11
53526;BME280;40551;50.478;19.378;2023-02-19T10:19:17;97508.11;;;3.61;89.27
53526;BME280;40551;50.478;19.378;2023-02-19T10:21:45;97513.13;;;3.55;89.02
53526;BME280;40551;50.478;19.378;2023-02-19T10:24:18;97510.39;;;3.50;89.28
53526;BME280;40551;50.478;19.378;2023-02-19T10:26:49;97514.61;;;3.43;88.61
53526;BME280;40551;50.478;19.378;2023-02-19T10:29:17;97522.80;;;3.36;88.69
53526;BME280;40551;50.478;19.378;2023-02-19T10:31:47;97520.16;;;3.33;89.16
53526;BME280;40551;50.478;19.378;2023-02-19T10:34:19;97519.36;;;3.36;89.14
53526;BME280;40551;50.478;19.378;2023-02-19T10:36:50;97525.74;;;3.38;89.12
53526;BME280;40551;50.478;19.378;2023-02-19T10:39:36;97529.73;;;3.37;89.21
53526;BME280;40551;50.478;19.378;2023-02-19T10:42:17;97524.18;;;3.41;89.64
53526;BME280;40551;50.478;19.378;2023-02-19T10:44:50;97523.41;;;3.47;89.97
53526;BME280;40551;50.478;19.378;2023-02-19T10:47:22;97529.84;;;3.51;89.70
53526;BME280;40551;50.478;19.378;2023-02-19T10:49:51;97533.80;;;3.48;89.00
53526;BME280;40551;50.478;19.378;2023-02-19T10:52:24;97539.12;;;3.41;88.92
53526;BME280;40551;50.478;19.378;2023-02-19T10:54:56;97539.01;;;3.37;88.97
53526;BME280;40551;50.478;19.378;2023-02-19T10:57:27;97533.86;;;3.37;89.00
53526;BME280;40551;50.478;19.378;2023-02-19T11:00:05;97540.28;;;3.41;89.39
53526;BME280;40551;50.478;19.378;2023-02-19T11:02:46;97538.85;;;3.45;89.25
53526;BME280;40551;50.478;19.378;2023-02-19T11:05:18;97541.48;;;3.52;89.41
53526;BME280;40551;50.478;19.378;2023-02-19T11:07:48;97554.58;;;3.59;89.44
53526;BME280;40551;50.478;19.378;2023-02-19T11:10:25;97556.46;;;3.61;89.14
53526;BME280;40551;50.478;19.378;2023-02-19T11:12:56;97558.45;;;3.65;89.23
53526;BME280;40551;50.478;19.378;2023-02-19T11:15:26;97561.20;;;3.67;88.64
53526;BME280;40551;50.478;19.378;2023-02-19T11:17:56;97561.11;;;3.61;87.92
53526;BME280;40551;50.478;19.378;2023-02-19T11:20:27;97565.27;;;3.61;87.63
53526;BME280;40551;50.478;19.378;2023-02-19T11:22:59;97567.54;;;3.60;87.29
53526;BME280;40551;50.478;19.378;2023-02-19T11:25:29;97569.08;;;3.60;87.35
53526;BME280;40551;50.478;19.378;2023-02-19T11:28:00;97572.02;;;3.60;87.34
53526;BME280;40551;50.478;19.378;2023-02-19T11:30:37;97574.82;;;3.64;87.85
53526;BME280;40551;50.478;19.378;2023-02-19T11:33:24;97577.17;;;3.72;88.10
53526;BME280;40551;50.478;19.378;2023-02-19T11:35:59;97582.33;;;3.83;87.89
53526;BME280;40551;50.478;19.378;2023-02-19T11:38:27;97582.56;;;3.95;87.98
53526;BME280;40551;50.478;19.378;2023-02-19T11:41:01;97585.88;;;4.05;87.82
53526;BME280;40551;50.478;19.378;2023-02-19T11:43:42;97586.06;;;4.10;87.28
53526;BME280;40551;50.478;19.378;2023-02-19T11:46:18;97588.78;;;4.13;86.99
53526;BME280;40551;50.478;19.378;2023-02-19T11:48:55;97593.28;;;4.12;86.24
53526;BME280;40551;50.478;19.378;2023-02-19T11:51:48;97593.43;;;4.07;86.00
53526;BME280;40551;50.478;19.378;2023-02-19T11:54:31;97598.01;;;4.11;86.81
53526;BME280;40551;50.478;19.378;2023-02-19T11:57:08;97605.09;;;4.15;87.02
53526;BME280;40551;50.478;19.378;2023-02-19T11:59:46;97601.84;;;4.20;87.09
53526;BME280;40551;50.478;19.378;2023-02-19T12:02:44;97611.98;;;4.23;86.42
53526;BME280;40551;50.478;19.378;2023-02-19T12:05:22;97614.56;;;4.20;86.55
53526;BME280;40551;50.478;19.378;2023-02-19T12:08:27;97616.68;;;4.16;86.32
53526;BME280;40551;50.478;19.378;2023-02-19T12:11:09;97620.39;;;4.10;86.04
53526;BME280;40551;50.478;19.378;2023-02-19T12:13:52;97620.02;;;4.00;85.47
53526;BME280;40551;50.478;19.378;2023-02-19T12:16:29;97620.62;;;3.90;85.39
53526;BME280;40551;50.478;19.378;2023-02-19T12:19:20;97621.14;;;3.88;86.03
53526;BME280;40551;50.478;19.378;2023-02-19T12:22:01;97626.38;;;3.81;85.56
53526;BME280;40551;50.478;19.378;2023-02-19T12:27:34;97635.70;;;3.77;86.46
53526;BME280;40551;50.478;19.378;2023-02-19T12:30:23;97640.48;;;3.83;86.81
53526;BME280;40551;50.478;19.378;2023-02-19T12:33:21;97642.85;;;3.86;86.69
53526;BME280;40551;50.478;19.378;2023-02-19T12:36:01;97646.73;;;3.95;87.29
53526;BME280;40551;50.478;19.378;2023-02-19T12:38:37;97642.92;;;3.98;86.91
53526;BME280;40551;50.478;19.378;2023-02-19T12:41:18;97642.90;;;3.96;86.81
53526;BME280;40551;50.478;19.378;2023-02-19T12:43:53;97644.48;;;3.95;86.66
53526;BME280;40551;50.478;19.378;2023-02-19T12:46:30;97643.70;;;3.92;86.52
53526;BME280;40551;50.478;19.378;2023-02-19T12:49:04;97648.26;;;3.88;86.53
53526;BME280;40551;50.478;19.378;2023-02-19T12:51:42;97655.61;;;3.85;86.65
53526;BME280;40551;50.478;19.378;2023-02-19T12:54:17;97650.35;;;3.82;86.51
53526;BME280;40551;50.478;19.378;2023-02-19T12:56:54;97654.23;;;3.80;86.59
53526;BME280;40551;50.478;19.378;2023-02-19T12:59:30;97658.03;;;3.80;86.72
53526;BME280;40551;50.478;19.378;2023-02-19T13:02:08;97662.16;;;3.83;86.81
53526;BME280;40551;50.478;19.378;2023-02-19T13:04:43;97664.70;;;3.85;86.56
53526;BME280;40551;50.478;19.378;2023-02-19T13:07:17;97670.35;;;3.91;86.73
53526;BME280;40551;50.478;19.378;2023-02-19T13:09:50;97674.52;;;3.95;86.60
53526;BME280;40551;50.478;19.378;2023-02-19T13:12:24;97678.77;;;3.99;86.52
53526;BME280;40551;50.478;19.378;2023-02-19T13:14:56;97679.63;;;4.01;86.20
53526;BME280;40551;50.478;19.378;2023-02-19T13:17:30;97685.13;;;3.99;85.44
53526;BME280;40551;50.478;19.378;2023-02-19T13:20:13;97684.77;;;3.99;85.43
53526;BME280;40551;50.478;19.378;2023-02-19T13:22:45;97688.66;;;3.99;85.00
53526;BME280;40551;50.478;19.378;2023-02-19T13:25:44;97692.11;;;4.02;85.19
53526;BME280;40551;50.478;19.378;2023-02-19T13:28:26;97690.27;;;4.04;84.89
53526;BME280;40551;50.478;19.378;2023-02-19T13:31:23;97695.20;;;4.10;85.64
53526;BME280;40551;50.478;19.378;2023-02-19T13:34:00;97694.84;;;4.15;85.25
53526;BME280;40551;50.478;19.378;2023-02-19T13:36:44;97701.13;;;4.16;84.58
53526;BME280;40551;50.478;19.378;2023-02-19T13:39:22;97706.02;;;4.15;84.61
53526;BME280;40551;50.478;19.378;2023-02-19T13:41:53;97705.68;;;4.15;84.58
53526;BME280;40551;50.478;19.378;2023-02-19T13:44:25;97711.88;;;4.15;84.36
53526;BME280;40551;50.478;19.378;2023-02-19T13:46:56;97717.27;;;4.14;84.61